createdAt,value
2018-03-16T00:00:04.698Z,0.00
2018-03-16T00:01:04.654Z,0.00
2018-03-16T00:02:04.628Z,0.00
2018-03-16T00:03:04.632Z,0.00
2018-03-16T00:04:05.340Z,0.00
2018-03-16T00:05:04.599Z,0.00
2018-03-16T00:06:04.582Z,0.00
2018-03-16T00:07:04.559Z,0.00
2018-03-16T00:08:04.533Z,0.00
2018-03-16T00:09:04.530Z,0.00
2018-03-16T00:10:04.500Z,0.00
2018-03-16T00:11:04.482Z,0.00
2018-03-16T00:12:04.492Z,0.00
2018-03-16T00:13:04.468Z,0.00
2018-03-16T00:14:04.438Z,0.00
2018-03-16T00:15:04.418Z,0.00
2018-03-16T00:16:04.402Z,0.00
2018-03-16T00:17:04.405Z,0.00
2018-03-16T00:18:04.366Z,0.00
2018-03-16T00:19:04.359Z,0.00
2018-03-16T00:20:04.338Z,0.00
2018-03-16T00:21:04.323Z,0.00
2018-03-16T00:22:04.323Z,0.00
2018-03-16T00:23:04.302Z,0.00
2018-03-16T00:24:04.278Z,0.00
2018-03-16T00:25:04.260Z,0.00
2018-03-16T00:26:04.242Z,0.00
2018-03-16T00:27:04.240Z,0.00
2018-03-16T00:28:04.226Z,0.00
2018-03-16T00:29:04.209Z,0.00
2018-03-16T00:30:04.173Z,0.00
2018-03-16T00:31:04.161Z,0.00
2018-03-16T00:32:04.144Z,0.00
2018-03-16T00:33:04.129Z,0.00
2018-03-16T00:34:04.123Z,0.00
2018-03-16T00:35:04.094Z,0.00
2018-03-16T00:36:04.077Z,0.00
2018-03-16T00:37:04.080Z,0.00
2018-03-16T00:38:04.065Z,0.00
2018-03-16T00:39:04.044Z,0.00
2018-03-16T00:40:04.010Z,0.00
2018-03-16T00:41:03.997Z,0.00
2018-03-16T00:42:04.010Z,0.00
2018-03-16T00:43:03.969Z,0.00
2018-03-16T00:44:03.944Z,0.00
2018-03-16T00:45:03.931Z,0.00
2018-03-16T00:46:03.915Z,0.00
2018-03-16T00:47:03.901Z,0.00
2018-03-16T00:48:03.896Z,0.00
2018-03-16T00:49:03.867Z,0.00
2018-03-16T00:50:03.851Z,0.00
2018-03-16T00:51:03.835Z,0.00
2018-03-16T00:52:03.827Z,0.00
2018-03-16T00:53:03.812Z,0.00
2018-03-16T00:54:03.783Z,0.00
2018-03-16T00:55:03.784Z,0.00
2018-03-16T00:56:03.752Z,0.00
2018-03-16T00:57:03.736Z,0.00
2018-03-16T00:58:06.212Z,0.00
2018-03-16T00:59:06.682Z,0.00
2018-03-16T01:00:04.324Z,0.00
2018-03-16T01:01:09.352Z,0.00
2018-03-16T01:02:03.709Z,0.00
2018-03-16T01:03:09.191Z,0.00
2018-03-16T01:04:04.170Z,0.00
2018-03-16T01:05:04.957Z,0.00
2018-03-16T01:06:03.607Z,0.00
2018-03-16T01:07:03.569Z,0.00
2018-03-16T01:08:03.556Z,0.00
2018-03-16T01:09:03.547Z,0.00
2018-03-16T01:10:03.524Z,0.00
2018-03-16T01:11:03.519Z,0.00
2018-03-16T01:12:03.506Z,0.00
2018-03-16T01:13:03.479Z,0.00
2018-03-16T01:14:03.461Z,0.00
2018-03-16T01:15:03.444Z,0.00
2018-03-16T01:16:03.429Z,0.00
2018-03-16T01:17:03.423Z,0.00
2018-03-16T01:18:03.395Z,0.00
2018-03-16T01:19:03.382Z,0.00
2018-03-16T01:20:03.375Z,0.00
2018-03-16T01:21:03.343Z,0.00
2018-03-16T01:22:03.343Z,0.00
2018-03-16T01:23:03.309Z,0.00
2018-03-16T01:24:03.301Z,0.00
2018-03-16T01:25:03.287Z,0.00
2018-03-16T01:26:03.266Z,0.00
2018-03-16T01:27:03.244Z,0.00
2018-03-16T01:28:03.244Z,0.00
2018-03-16T01:29:03.212Z,0.00
2018-03-16T01:30:03.197Z,0.00
2018-03-16T01:31:03.181Z,0.00
2018-03-16T01:32:03.163Z,0.00
2018-03-16T01:33:03.167Z,0.00
2018-03-16T01:34:03.131Z,0.00
2018-03-16T01:35:03.118Z,0.00
2018-03-16T01:36:03.095Z,0.00
2018-03-16T01:37:03.081Z,0.00
2018-03-16T01:38:03.080Z,0.00
2018-03-16T01:39:03.044Z,0.00
2018-03-16T01:40:03.031Z,0.00
2018-03-16T01:41:03.016Z,0.00
2018-03-16T01:42:02.995Z,0.00
2018-03-16T01:43:02.982Z,0.00
2018-03-16T01:44:02.984Z,0.00
2018-03-16T01:45:02.946Z,0.00
2018-03-16T01:46:02.935Z,0.00
2018-03-16T01:47:02.914Z,0.00
2018-03-16T01:48:02.899Z,0.00
2018-03-16T01:49:02.899Z,0.00
2018-03-16T01:50:02.885Z,0.00
2018-03-16T01:51:02.851Z,0.00
2018-03-16T01:52:02.837Z,0.00
2018-03-16T01:53:02.817Z,0.00
2018-03-16T01:54:02.812Z,0.00
2018-03-16T01:55:02.784Z,0.00
2018-03-16T01:56:02.763Z,0.00
2018-03-16T01:57:02.745Z,0.00
2018-03-16T01:58:02.749Z,0.00
2018-03-16T01:59:02.724Z,0.00
2018-03-16T02:00:02.702Z,0.00
2018-03-16T02:01:02.699Z,0.00
2018-03-16T02:02:02.669Z,0.00
2018-03-16T02:03:02.677Z,0.00
2018-03-16T02:04:02.635Z,0.00
2018-03-16T02:05:02.638Z,0.00
2018-03-16T02:06:02.603Z,0.00
2018-03-16T02:07:02.587Z,0.00
2018-03-16T02:08:02.571Z,0.00
2018-03-16T02:09:02.555Z,0.00
2018-03-16T02:10:02.538Z,0.00
2018-03-16T02:11:02.546Z,0.00
2018-03-16T02:12:02.515Z,0.00
2018-03-16T02:13:02.487Z,0.00
2018-03-16T02:14:02.465Z,0.00
2018-03-16T02:15:02.458Z,0.00
2018-03-16T02:16:02.454Z,0.00
2018-03-16T02:17:02.421Z,0.00
2018-03-16T02:18:02.405Z,0.00
2018-03-16T02:19:02.387Z,0.00
2018-03-16T02:20:02.400Z,0.00
2018-03-16T02:21:02.362Z,0.00
2018-03-16T02:22:02.364Z,0.00
2018-03-16T02:23:02.320Z,0.00
2018-03-16T02:24:02.301Z,0.00
2018-03-16T02:25:02.291Z,0.00
2018-03-16T02:26:02.289Z,0.00
2018-03-16T02:27:02.271Z,0.00
2018-03-16T02:28:02.254Z,0.00
2018-03-16T02:29:02.222Z,0.00
2018-03-16T02:30:02.212Z,0.00
2018-03-16T02:31:02.187Z,0.00
2018-03-16T02:32:02.178Z,0.00
2018-03-16T02:33:02.173Z,0.00
2018-03-16T02:34:02.143Z,0.00
2018-03-16T02:35:02.117Z,0.00
2018-03-16T02:36:02.157Z,0.00
2018-03-16T02:37:02.108Z,0.00
2018-03-16T02:38:02.069Z,0.00
2018-03-16T02:39:02.072Z,0.00
2018-03-16T02:40:02.044Z,0.00
2018-03-16T02:41:02.027Z,0.00
2018-03-16T02:42:02.009Z,0.00
2018-03-16T02:43:02.017Z,0.00
2018-03-16T02:44:01.978Z,0.00
2018-03-16T02:45:01.977Z,0.00
2018-03-16T02:46:01.943Z,0.00
2018-03-16T02:47:01.928Z,0.00
2018-03-16T02:48:01.960Z,0.00
2018-03-16T02:49:01.895Z,0.00
2018-03-16T02:50:01.898Z,0.00
2018-03-16T02:51:01.856Z,0.00
2018-03-16T02:52:01.848Z,0.00
2018-03-16T02:53:01.824Z,0.00
2018-03-16T02:54:01.834Z,0.00
2018-03-16T02:55:01.802Z,0.00
2018-03-16T02:56:01.780Z,0.00
2018-03-16T02:57:01.763Z,0.00
2018-03-16T02:58:01.748Z,0.00
2018-03-16T02:59:01.742Z,0.00
2018-03-16T03:00:01.732Z,0.00
2018-03-16T03:01:01.773Z,0.00
2018-03-16T03:02:01.694Z,0.00
2018-03-16T03:03:01.669Z,0.00
2018-03-16T03:04:01.653Z,0.00
2018-03-16T03:05:01.632Z,0.00
2018-03-16T03:06:01.632Z,0.00
2018-03-16T03:07:01.600Z,0.00
2018-03-16T03:08:01.581Z,0.00
2018-03-16T03:09:01.574Z,0.00
2018-03-16T03:10:01.555Z,0.00
2018-03-16T03:11:01.528Z,0.00
2018-03-16T03:12:01.532Z,0.00
2018-03-16T03:13:01.500Z,0.00
2018-03-16T03:14:01.485Z,0.00
2018-03-16T03:15:01.478Z,0.00
2018-03-16T03:16:01.457Z,0.00
2018-03-16T03:17:01.434Z,0.00
2018-03-16T03:18:01.436Z,0.00
2018-03-16T03:19:01.416Z,0.00
2018-03-16T03:20:01.388Z,0.00
2018-03-16T03:21:01.372Z,0.00
2018-03-16T03:22:01.355Z,0.00
2018-03-16T03:23:01.346Z,0.00
2018-03-16T03:24:01.325Z,0.00
2018-03-16T03:25:01.322Z,0.00
2018-03-16T03:26:01.288Z,0.00
2018-03-16T03:27:01.267Z,0.00
2018-03-16T03:28:01.253Z,0.00
2018-03-16T03:29:01.257Z,0.00
2018-03-16T03:30:01.241Z,0.00
2018-03-16T03:31:01.210Z,0.00
2018-03-16T03:32:01.200Z,0.00
2018-03-16T03:33:01.173Z,0.00
2018-03-16T03:34:01.163Z,0.00
2018-03-16T03:35:01.145Z,0.00
2018-03-16T03:36:01.124Z,0.00
2018-03-16T03:37:01.127Z,0.00
2018-03-16T03:38:01.099Z,0.00
2018-03-16T03:39:01.077Z,0.00
2018-03-16T03:40:01.061Z,0.00
2018-03-16T03:41:01.046Z,0.00
2018-03-16T03:42:01.028Z,0.00
2018-03-16T03:43:01.023Z,0.00
2018-03-16T03:44:00.997Z,0.00
2018-03-16T03:45:00.994Z,0.00
2018-03-16T03:46:00.974Z,0.00
2018-03-16T03:47:00.945Z,0.00
2018-03-16T03:48:00.946Z,0.00
2018-03-16T03:49:00.916Z,0.00
2018-03-16T03:50:00.896Z,0.00
2018-03-16T03:51:00.890Z,0.00
2018-03-16T03:52:00.865Z,0.00
2018-03-16T03:53:00.857Z,0.00
2018-03-16T03:54:00.848Z,0.00
2018-03-16T03:55:00.825Z,0.00
2018-03-16T03:56:00.796Z,0.00
2018-03-16T03:57:00.780Z,0.00
2018-03-16T03:58:00.782Z,0.00
2018-03-16T03:59:00.769Z,0.00
2018-03-16T04:00:00.735Z,0.00
2018-03-16T04:01:00.719Z,0.00
2018-03-16T04:02:00.713Z,0.00
2018-03-16T04:03:00.691Z,0.00
2018-03-16T04:04:00.688Z,0.00
2018-03-16T04:05:00.659Z,0.00
2018-03-16T04:06:00.645Z,0.00
2018-03-16T04:07:00.637Z,0.00
2018-03-16T04:08:00.607Z,0.00
2018-03-16T04:09:00.602Z,0.00
2018-03-16T04:10:21.586Z,0.00
2018-03-16T04:11:00.557Z,0.00
2018-03-16T04:12:00.538Z,0.00
2018-03-16T04:13:00.526Z,0.00
2018-03-16T04:14:00.510Z,0.00
2018-03-16T04:15:00.512Z,0.00
2018-03-16T04:16:00.479Z,0.00
2018-03-16T04:17:00.462Z,0.00
2018-03-16T04:18:00.446Z,0.00
2018-03-16T04:19:00.428Z,0.00
2018-03-16T04:20:00.439Z,0.00
2018-03-16T04:21:00.396Z,0.00
2018-03-16T04:22:00.381Z,0.00
2018-03-16T04:23:00.364Z,0.00
2018-03-16T04:24:00.349Z,0.00
2018-03-16T04:25:00.334Z,0.00
2018-03-16T04:26:00.342Z,0.00
2018-03-16T04:27:00.296Z,0.00
2018-03-16T04:28:00.287Z,0.00
2018-03-16T04:29:00.268Z,0.00
2018-03-16T04:30:00.272Z,0.00
2018-03-16T04:31:00.232Z,0.00
2018-03-16T04:32:00.219Z,0.00
2018-03-16T04:33:00.202Z,0.00
2018-03-16T04:34:00.185Z,0.00
2018-03-16T04:35:00.175Z,0.00
2018-03-16T04:36:00.181Z,0.00
2018-03-16T04:37:00.137Z,0.00
2018-03-16T04:38:00.119Z,0.00
2018-03-16T04:39:00.103Z,0.00
2018-03-16T04:40:00.091Z,0.00
2018-03-16T04:41:00.094Z,0.00
2018-03-16T04:42:00.057Z,0.00
2018-03-16T04:43:00.044Z,0.00
2018-03-16T04:44:00.026Z,0.00
2018-03-16T04:45:00.009Z,0.00
2018-03-16T04:46:00.010Z,0.00
2018-03-16T04:46:59.984Z,0.00
2018-03-16T04:47:59.961Z,0.00
2018-03-16T04:48:59.957Z,0.00
2018-03-16T04:49:59.930Z,0.00
2018-03-16T04:50:59.914Z,0.00
2018-03-16T04:51:59.914Z,0.00
2018-03-16T04:52:59.879Z,0.00
2018-03-16T04:53:59.885Z,0.00
2018-03-16T04:54:59.851Z,0.00
2018-03-16T04:55:59.847Z,0.00
2018-03-16T04:56:59.817Z,0.00
2018-03-16T04:57:59.818Z,0.00
2018-03-16T04:58:59.818Z,0.00
2018-03-16T04:59:59.766Z,0.00
2018-03-16T05:00:59.750Z,0.00
2018-03-16T05:01:59.733Z,0.00
2018-03-16T05:02:59.720Z,0.00
2018-03-16T05:03:59.721Z,0.00
2018-03-16T05:04:59.691Z,0.00
2018-03-16T05:05:59.670Z,0.00
2018-03-16T05:06:59.668Z,0.00
2018-03-16T05:07:59.636Z,0.00
2018-03-16T05:08:59.624Z,0.00
2018-03-16T05:09:59.624Z,0.00
2018-03-16T05:10:59.593Z,0.00
2018-03-16T05:11:59.576Z,0.00
2018-03-16T05:12:59.561Z,0.00
2018-03-16T05:13:59.543Z,0.00
2018-03-16T05:14:59.544Z,0.00
2018-03-16T05:15:59.522Z,0.00
2018-03-16T05:16:59.496Z,0.00
2018-03-16T05:17:59.515Z,0.00
2018-03-16T05:18:59.458Z,0.00
2018-03-16T05:19:59.458Z,0.00
2018-03-16T05:20:59.469Z,0.00
2018-03-16T05:21:59.435Z,0.00
2018-03-16T05:22:59.401Z,4.00
2018-03-16T05:23:59.388Z,4.00
2018-03-16T05:24:59.386Z,4.00
2018-03-16T05:25:59.369Z,0.00
2018-03-16T05:26:59.335Z,4.00
2018-03-16T05:27:59.321Z,4.00
2018-03-16T05:28:59.302Z,4.00
2018-03-16T05:29:59.309Z,4.00
2018-03-16T05:30:59.273Z,8.00
2018-03-16T05:31:59.252Z,8.00
2018-03-16T05:32:59.249Z,8.00
2018-03-16T05:33:59.223Z,12.00
2018-03-16T05:34:59.209Z,12.00
2018-03-16T05:35:59.209Z,12.00
2018-03-16T05:36:59.176Z,12.00
2018-03-16T05:37:59.161Z,20.00
2018-03-16T05:38:59.143Z,20.00
2018-03-16T05:39:59.124Z,20.00
2018-03-16T05:40:59.134Z,24.00
2018-03-16T05:41:59.111Z,28.00
2018-03-16T05:42:59.079Z,28.00
2018-03-16T05:43:59.063Z,28.00
2018-03-16T05:44:59.046Z,32.00
2018-03-16T05:45:59.040Z,40.00
2018-03-16T05:47:20.029Z,44.00
2018-03-16T05:47:58.998Z,48.00
2018-03-16T05:48:58.984Z,52.00
2018-03-16T05:49:58.972Z,56.00
2018-03-16T05:50:58.952Z,56.00
2018-03-16T05:51:58.954Z,52.00
2018-03-16T05:52:58.922Z,52.00
2018-03-16T05:53:58.903Z,52.00
2018-03-16T05:54:58.889Z,60.00
2018-03-16T05:55:58.868Z,76.00
2018-03-16T05:56:58.874Z,84.00
2018-03-16T05:57:58.839Z,96.00
2018-03-16T05:58:58.829Z,100.00
2018-03-16T05:59:58.820Z,104.00
2018-03-16T06:00:58.858Z,116.00
2018-03-16T06:01:58.778Z,120.00
2018-03-16T06:02:58.778Z,128.00
2018-03-16T06:03:58.739Z,136.00
2018-03-16T06:04:58.729Z,144.00
2018-03-16T06:05:58.713Z,152.00
2018-03-16T06:06:58.695Z,168.00
2018-03-16T06:07:58.676Z,176.00
2018-03-16T06:08:58.680Z,184.00
2018-03-16T06:09:58.666Z,204.00
2018-03-16T06:10:58.629Z,232.00
2018-03-16T06:11:58.619Z,268.00
2018-03-16T06:12:58.600Z,284.00
2018-03-16T06:13:58.577Z,280.00
2018-03-16T06:14:58.564Z,280.00
2018-03-16T06:15:58.581Z,260.00
2018-03-16T06:16:58.534Z,252.00
2018-03-16T06:17:58.524Z,268.00
2018-03-16T06:18:58.506Z,300.00
2018-03-16T06:19:58.504Z,340.00
2018-03-16T06:20:58.474Z,356.00
2018-03-16T06:21:58.456Z,352.00
2018-03-16T06:22:58.433Z,344.00
2018-03-16T06:23:58.432Z,348.00
2018-03-16T06:24:58.405Z,356.00
2018-03-16T06:25:58.413Z,360.00
2018-03-16T06:26:58.374Z,368.00
2018-03-16T06:27:58.358Z,364.00
2018-03-16T06:28:58.339Z,368.00
2018-03-16T06:29:58.335Z,408.00
2018-03-16T06:30:58.310Z,484.00
2018-03-16T06:31:58.316Z,564.00
2018-03-16T06:32:58.284Z,612.00
2018-03-16T06:33:58.265Z,624.00
2018-03-16T06:34:58.248Z,616.00
2018-03-16T06:35:58.230Z,608.00
2018-03-16T06:37:19.229Z,632.00
2018-03-16T06:37:58.204Z,688.00
2018-03-16T06:38:58.185Z,756.00
2018-03-16T06:39:58.182Z,780.00
2018-03-16T06:40:58.163Z,772.00
2018-03-16T06:41:58.153Z,756.00
2018-03-16T06:42:58.123Z,772.00
2018-03-16T06:43:58.108Z,820.00
2018-03-16T06:44:58.133Z,856.00
2018-03-16T06:45:58.067Z,848.00
2018-03-16T06:46:58.057Z,820.00
2018-03-16T06:47:58.054Z,820.00
2018-03-16T06:48:58.024Z,872.00
2018-03-16T06:49:58.011Z,944.00
2018-03-16T06:50:57.992Z,1008.00
2018-03-16T06:51:57.977Z,1088.00
2018-03-16T06:52:57.969Z,1220.00
2018-03-16T06:53:57.979Z,1396.00
2018-03-16T06:54:57.929Z,1596.00
2018-03-16T06:55:57.923Z,1796.00
2018-03-16T06:57:02.972Z,1968.00
2018-03-16T06:57:57.889Z,2080.00
2018-03-16T06:58:57.904Z,2156.00
2018-03-16T07:00:57.839Z,2396.00
2018-03-16T07:01:57.824Z,2592.00
2018-03-16T07:02:57.806Z,2672.00
2018-03-16T07:03:57.806Z,2632.00
2018-03-16T07:04:57.787Z,2644.00
2018-03-16T07:05:57.754Z,2604.00
2018-03-16T07:06:57.742Z,2428.00
2018-03-16T07:07:57.726Z,2192.00
2018-03-16T07:08:57.720Z,2088.00
2018-03-16T07:09:57.690Z,2092.00
2018-03-16T07:10:57.695Z,2092.00
2018-03-16T07:11:57.662Z,2036.00
2018-03-16T07:12:57.648Z,2020.00
2018-03-16T07:13:57.631Z,2100.00
2018-03-16T07:14:57.617Z,2228.00
2018-03-16T07:15:57.623Z,2304.00
2018-03-16T07:16:57.591Z,2380.00
2018-03-16T07:17:57.578Z,2500.00
2018-03-16T07:18:57.558Z,2752.00
2018-03-16T07:19:57.538Z,3244.00
2018-03-16T07:20:57.520Z,3788.00
2018-03-16T07:21:57.530Z,4152.00
2018-03-16T07:22:57.495Z,4204.00
2018-03-16T07:23:57.482Z,4112.00
2018-03-16T07:24:57.478Z,3980.00
2018-03-16T07:25:57.450Z,3848.00
2018-03-16T07:26:57.449Z,3668.00
2018-03-16T07:27:57.421Z,3588.00
2018-03-16T07:28:57.402Z,3560.00
2018-03-16T07:29:57.392Z,3596.00
2018-03-16T07:30:57.430Z,3560.00
2018-03-16T07:31:57.356Z,3380.00
2018-03-16T07:32:57.351Z,3192.00
2018-03-16T07:33:57.329Z,3212.00
2018-03-16T07:34:57.307Z,3348.00
2018-03-16T07:35:57.300Z,3372.00
2018-03-16T07:36:57.278Z,3304.00
2018-03-16T07:37:57.280Z,3180.00
2018-03-16T07:38:57.246Z,3124.00
2018-03-16T07:39:57.242Z,3084.00
2018-03-16T07:40:57.218Z,3004.00
2018-03-16T07:41:57.212Z,2888.00
2018-03-16T07:42:57.204Z,2820.00
2018-03-16T07:43:57.173Z,2924.00
2018-03-16T07:44:57.160Z,3164.00
2018-03-16T07:45:57.145Z,3416.00
2018-03-16T07:46:57.137Z,3572.00
2018-03-16T07:47:57.128Z,3612.00
2018-03-16T07:48:57.115Z,3568.00
2018-03-16T07:49:57.086Z,3476.00
2018-03-16T07:50:57.068Z,3376.00
2018-03-16T07:51:57.051Z,3360.00
2018-03-16T07:52:57.056Z,3456.00
2018-03-16T07:53:57.027Z,3600.00
2018-03-16T07:54:57.013Z,3596.00
2018-03-16T07:55:56.995Z,3608.00
2018-03-16T07:56:57.001Z,3696.00
2018-03-16T07:57:56.961Z,3872.00
2018-03-16T07:58:56.966Z,4064.00
2018-03-16T07:59:56.953Z,4276.00
2018-03-16T08:00:56.917Z,4380.00
2018-03-16T08:01:56.904Z,4476.00
2018-03-16T08:02:56.890Z,4584.00
2018-03-16T08:03:56.869Z,4640.00
2018-03-16T08:04:56.876Z,4580.00
2018-03-16T08:05:56.844Z,4468.00
2018-03-16T08:06:56.874Z,4340.00
2018-03-16T08:07:56.828Z,4304.00
2018-03-16T08:08:56.835Z,4356.00
2018-03-16T08:09:56.797Z,4484.00
2018-03-16T08:10:56.769Z,4660.00
2018-03-16T08:11:56.755Z,4792.00
2018-03-16T08:12:56.742Z,4784.00
2018-03-16T08:13:56.725Z,4668.00
2018-03-16T08:14:56.707Z,4352.00
2018-03-16T08:15:56.703Z,3760.00
2018-03-16T08:16:56.677Z,3208.00
2018-03-16T08:17:56.664Z,2840.00
2018-03-16T08:18:56.701Z,2628.00
2018-03-16T08:19:56.648Z,2500.00
2018-03-16T08:20:56.617Z,2372.00
2018-03-16T08:21:56.617Z,2240.00
2018-03-16T08:22:56.585Z,2104.00
2018-03-16T08:23:56.587Z,1964.00
2018-03-16T08:24:56.560Z,1832.00
2018-03-16T08:25:56.544Z,1732.00
2018-03-16T08:26:56.529Z,1680.00
2018-03-16T08:27:56.511Z,1716.00
2018-03-16T08:28:56.513Z,1856.00
2018-03-16T08:29:56.484Z,2064.00
2018-03-16T08:30:56.467Z,2252.00
2018-03-16T08:31:56.455Z,2332.00
2018-03-16T08:32:56.441Z,2380.00
2018-03-16T08:33:56.483Z,2488.00
2018-03-16T08:34:56.407Z,2628.00
2018-03-16T08:35:56.393Z,2740.00
2018-03-16T08:36:56.380Z,2824.00
2018-03-16T08:37:56.378Z,2788.00
2018-03-16T08:38:56.350Z,2584.00
2018-03-16T08:39:56.333Z,2384.00
2018-03-16T08:40:56.328Z,2260.00
2018-03-16T08:41:56.318Z,2236.00
2018-03-16T08:42:56.304Z,2304.00
2018-03-16T08:43:56.275Z,2412.00
2018-03-16T08:44:56.256Z,2504.00
2018-03-16T08:45:56.265Z,2528.00
2018-03-16T08:46:56.231Z,2496.00
2018-03-16T08:47:56.225Z,2464.00
2018-03-16T08:48:56.197Z,2436.00
2018-03-16T08:49:56.184Z,2392.00
2018-03-16T08:50:56.174Z,2280.00
2018-03-16T08:51:56.154Z,2176.00
2018-03-16T08:52:56.158Z,2160.00
2018-03-16T08:53:56.126Z,2224.00
2018-03-16T08:54:56.130Z,2308.00
2018-03-16T08:55:56.124Z,2320.00
2018-03-16T08:56:56.106Z,2304.00
2018-03-16T08:57:56.091Z,2316.00
2018-03-16T08:58:56.069Z,2344.00
2018-03-16T08:59:56.039Z,2340.00
2018-03-16T09:00:56.016Z,2356.00
2018-03-16T09:01:56.005Z,2376.00
2018-03-16T09:02:56.047Z,2400.00
2018-03-16T09:03:55.987Z,2380.00
2018-03-16T09:04:56.013Z,2308.00
2018-03-16T09:05:55.945Z,2168.00
2018-03-16T09:06:55.931Z,2020.00
2018-03-16T09:07:55.916Z,1912.00
2018-03-16T09:08:55.902Z,1888.00
2018-03-16T09:10:16.897Z,1936.00
2018-03-16T09:10:55.877Z,2028.00
2018-03-16T09:11:55.854Z,2076.00
2018-03-16T09:12:55.845Z,2100.00
2018-03-16T09:13:55.820Z,2144.00
2018-03-16T09:14:55.807Z,2180.00
2018-03-16T09:15:55.814Z,2220.00
2018-03-16T09:16:55.781Z,2268.00
2018-03-16T09:17:55.762Z,2348.00
2018-03-16T09:18:55.752Z,2424.00
2018-03-16T09:19:55.733Z,2464.00
2018-03-16T09:20:55.736Z,2444.00
2018-03-16T09:21:55.708Z,2376.00
2018-03-16T09:22:55.682Z,2288.00
2018-03-16T09:23:55.693Z,2200.00
2018-03-16T09:24:55.655Z,2144.00
2018-03-16T09:25:55.637Z,2144.00
2018-03-16T09:26:55.643Z,2188.00
2018-03-16T09:27:55.614Z,2272.00
2018-03-16T09:28:55.598Z,2360.00
2018-03-16T09:29:55.596Z,2412.00
2018-03-16T09:30:55.567Z,2428.00
2018-03-16T09:31:55.553Z,2424.00
2018-03-16T09:32:55.535Z,2400.00
2018-03-16T09:33:55.524Z,2364.00
2018-03-16T09:34:55.559Z,2300.00
2018-03-16T09:35:55.484Z,2244.00
2018-03-16T09:36:55.475Z,2236.00
2018-03-16T09:37:55.462Z,2292.00
2018-03-16T09:38:55.449Z,2412.00
2018-03-16T09:39:55.453Z,2548.00
2018-03-16T09:40:55.414Z,2640.00
2018-03-16T09:41:55.398Z,2672.00
2018-03-16T09:42:55.398Z,2632.00
2018-03-16T09:43:55.372Z,2580.00
2018-03-16T09:44:55.379Z,2528.00
2018-03-16T09:45:55.345Z,2432.00
2018-03-16T09:46:55.326Z,2328.00
2018-03-16T09:47:55.327Z,2236.00
2018-03-16T09:48:55.288Z,2212.00
2018-03-16T09:49:55.768Z,2300.00
2018-03-16T09:50:55.258Z,2444.00
2018-03-16T09:51:55.262Z,2640.00
2018-03-16T09:52:55.234Z,2816.00
2018-03-16T09:53:55.217Z,2936.00
2018-03-16T09:54:55.215Z,2976.00
2018-03-16T09:55:55.184Z,2996.00
2018-03-16T09:56:55.187Z,3024.00
2018-03-16T09:57:55.157Z,3088.00
2018-03-16T09:58:55.157Z,3200.00
2018-03-16T09:59:55.128Z,3364.00
2018-03-16T10:00:55.114Z,3544.00
2018-03-16T10:01:55.097Z,3696.00
2018-03-16T10:02:55.076Z,3868.00
2018-03-16T10:03:55.062Z,4064.00
2018-03-16T10:04:55.065Z,4304.00
2018-03-16T10:05:55.033Z,4596.00
2018-03-16T10:06:55.034Z,4948.00
2018-03-16T10:07:54.999Z,5332.00
2018-03-16T10:08:54.988Z,5764.00
2018-03-16T10:09:54.970Z,6228.00
2018-03-16T10:10:54.953Z,6656.00
2018-03-16T10:11:54.948Z,6920.00
2018-03-16T10:12:54.923Z,6800.00
2018-03-16T10:13:54.929Z,6232.00
2018-03-16T10:14:54.891Z,5648.00
2018-03-16T10:15:54.907Z,5300.00
2018-03-16T10:16:54.858Z,5216.00
2018-03-16T10:17:54.860Z,5284.00
2018-03-16T10:18:54.832Z,5436.00
2018-03-16T10:19:54.819Z,5564.00
2018-03-16T10:20:54.804Z,5704.00
2018-03-16T10:21:54.781Z,5888.00
2018-03-16T10:22:54.776Z,5976.00
2018-03-16T10:23:54.775Z,5864.00
2018-03-16T10:24:54.743Z,5516.00
2018-03-16T10:25:54.728Z,5116.00
2018-03-16T10:26:54.715Z,4764.00
2018-03-16T10:27:54.696Z,4436.00
2018-03-16T10:28:54.699Z,4424.00
2018-03-16T10:29:54.672Z,4316.00
2018-03-16T10:30:54.699Z,4188.00
2018-03-16T10:31:54.644Z,3956.00
2018-03-16T10:32:54.626Z,3868.00
2018-03-16T10:33:54.625Z,3824.00
2018-03-16T10:34:54.596Z,3868.00
2018-03-16T10:35:54.574Z,3924.00
2018-03-16T10:36:54.560Z,3944.00
2018-03-16T10:37:54.550Z,3984.00
2018-03-16T10:38:54.529Z,4008.00
2018-03-16T10:39:54.533Z,4060.00
2018-03-16T10:40:54.508Z,4152.00
2018-03-16T10:41:54.486Z,4272.00
2018-03-16T10:42:54.482Z,4240.00
2018-03-16T10:43:54.453Z,4212.00
2018-03-16T10:44:54.456Z,4076.00
2018-03-16T10:45:54.425Z,3884.00
2018-03-16T10:46:54.408Z,3740.00
2018-03-16T10:47:54.392Z,3652.00
2018-03-16T10:48:54.465Z,3608.00
2018-03-16T10:49:54.364Z,3536.00
2018-03-16T10:50:54.352Z,3732.00
2018-03-16T10:51:54.331Z,3852.00
2018-03-16T10:52:54.318Z,4040.00
2018-03-16T10:53:54.839Z,4280.00
2018-03-16T10:54:55.117Z,4460.00
2018-03-16T10:55:54.858Z,4636.00
2018-03-16T10:56:54.253Z,4796.00
2018-03-16T10:57:54.242Z,4924.00
2018-03-16T10:58:54.239Z,5096.00
2018-03-16T10:59:54.217Z,5264.00
2018-03-16T11:00:54.194Z,5396.00
2018-03-16T11:01:54.232Z,5232.00
2018-03-16T11:02:54.164Z,5032.00
2018-03-16T11:03:54.173Z,4804.00
2018-03-16T11:04:54.141Z,4588.00
2018-03-16T11:05:54.160Z,4408.00
2018-03-16T11:06:54.123Z,4304.00
2018-03-16T11:07:54.090Z,4256.00
2018-03-16T11:08:54.086Z,4280.00
2018-03-16T11:09:54.076Z,4316.00
2018-03-16T11:10:54.067Z,4260.00
2018-03-16T11:11:54.029Z,4052.00
2018-03-16T11:12:54.005Z,3732.00
2018-03-16T11:13:54.007Z,3340.00
2018-03-16T11:14:53.996Z,3036.00
2018-03-16T11:15:53.969Z,2824.00
2018-03-16T11:16:53.955Z,2900.00
2018-03-16T11:17:53.935Z,2904.00
2018-03-16T11:18:53.934Z,2920.00
2018-03-16T11:19:53.941Z,2928.00
2018-03-16T11:20:53.905Z,2856.00
2018-03-16T11:21:53.875Z,2916.00
2018-03-16T11:22:53.856Z,2972.00
2018-03-16T11:23:53.846Z,3120.00
2018-03-16T11:24:53.834Z,3172.00
2018-03-16T11:25:53.836Z,3228.00
2018-03-16T11:26:53.817Z,3208.00
2018-03-16T11:27:53.776Z,3208.00
2018-03-16T11:28:53.774Z,3244.00
2018-03-16T11:29:53.758Z,3244.00
2018-03-16T11:30:53.756Z,3160.00
2018-03-16T11:31:53.720Z,3124.00
2018-03-16T11:32:53.711Z,3068.00
2018-03-16T11:33:53.695Z,3004.00
2018-03-16T11:34:53.670Z,2992.00
2018-03-16T11:35:53.695Z,3092.00
2018-03-16T11:36:53.660Z,3140.00
2018-03-16T11:37:53.633Z,3196.00
2018-03-16T11:38:53.608Z,3280.00
2018-03-16T11:39:53.599Z,3288.00
2018-03-16T11:40:53.575Z,3324.00
2018-03-16T11:41:53.578Z,3328.00
2018-03-16T11:42:53.573Z,3316.00
2018-03-16T11:43:53.534Z,3324.00
2018-03-16T11:44:53.519Z,3336.00
2018-03-16T11:45:53.518Z,3384.00
2018-03-16T11:46:53.509Z,3388.00
2018-03-16T11:47:53.470Z,3484.00
2018-03-16T11:48:53.463Z,3628.00
2018-03-16T11:49:53.436Z,3836.00
2018-03-16T11:50:53.434Z,4036.00
2018-03-16T11:51:53.432Z,3820.00
2018-03-16T11:52:53.407Z,3820.00
2018-03-16T11:53:53.371Z,3628.00
2018-03-16T11:54:53.370Z,3260.00
2018-03-16T11:55:53.345Z,2988.00
2018-03-16T11:56:53.319Z,2972.00
2018-03-16T11:57:53.331Z,3092.00
2018-03-16T11:58:53.309Z,2948.00
2018-03-16T11:59:53.290Z,2736.00
2018-03-16T12:00:53.261Z,2528.00
2018-03-16T12:01:53.245Z,2440.00
2018-03-16T12:02:53.226Z,2496.00
2018-03-16T12:03:53.244Z,2436.00
2018-03-16T12:04:53.217Z,2560.00
2018-03-16T12:05:53.182Z,2260.00
2018-03-16T12:06:53.169Z,2180.00
2018-03-16T12:07:53.148Z,2516.00
2018-03-16T12:08:53.129Z,2688.00
2018-03-16T12:09:53.120Z,2848.00
2018-03-16T12:10:53.135Z,2928.00
2018-03-16T12:11:53.082Z,3040.00
2018-03-16T12:12:53.077Z,3008.00
2018-03-16T12:13:53.054Z,2776.00
2018-03-16T12:14:53.040Z,2548.00
2018-03-16T12:15:53.038Z,2508.00
2018-03-16T12:16:53.007Z,2408.00
2018-03-16T12:17:52.991Z,2388.00
2018-03-16T12:18:52.970Z,2136.00
2018-03-16T12:19:52.984Z,2104.00
2018-03-16T12:20:52.955Z,2060.00
2018-03-16T12:21:52.945Z,2132.00
2018-03-16T12:22:52.907Z,2044.00
2018-03-16T12:23:52.894Z,2132.00
2018-03-16T12:24:52.877Z,2236.00
2018-03-16T12:25:52.857Z,2112.00
2018-03-16T12:26:52.855Z,2100.00
2018-03-16T12:27:52.844Z,2216.00
2018-03-16T12:28:52.806Z,2072.00
2018-03-16T12:29:52.793Z,2352.00
2018-03-16T12:30:52.792Z,2196.00
2018-03-16T12:31:52.757Z,2564.00
2018-03-16T12:32:52.764Z,2204.00
2018-03-16T12:33:52.731Z,2408.00
2018-03-16T12:34:52.706Z,2780.00
2018-03-16T12:35:52.699Z,2820.00
2018-03-16T12:36:52.700Z,2844.00
2018-03-16T12:37:52.664Z,2580.00
2018-03-16T12:38:52.659Z,3040.00
2018-03-16T12:39:52.656Z,2472.00